createdAt,value
2018-02-02T07:04:31.976Z,2.74
2018-02-02T07:05:31.699Z,2.74
2018-02-02T07:06:31.670Z,2.72
2018-02-02T07:07:31.649Z,2.77
2018-02-02T07:08:31.615Z,2.80
2018-02-02T07:09:31.739Z,2.79
2018-02-02T07:10:31.560Z,2.83
2018-02-02T07:11:31.533Z,2.80
2018-02-02T07:12:31.506Z,2.75
2018-02-02T07:13:31.479Z,2.75
2018-02-02T07:14:31.554Z,2.74
2018-02-02T07:15:31.424Z,2.87
2018-02-02T07:16:31.396Z,2.83
2018-02-02T07:17:31.370Z,2.74
2018-02-02T07:18:31.342Z,2.77
2018-02-02T07:19:31.314Z,2.86
2018-02-02T07:20:31.287Z,2.85
2018-02-02T07:21:31.261Z,2.83
2018-02-02T07:22:31.232Z,2.85
2018-02-02T07:23:31.205Z,2.83
2018-02-02T07:24:31.179Z,2.75
2018-02-02T07:25:31.152Z,2.83
2018-02-02T07:26:31.124Z,2.86
2018-02-02T07:27:31.097Z,2.87
2018-02-02T07:28:31.070Z,2.87
2018-02-02T07:29:31.041Z,2.87
2018-02-02T07:30:31.015Z,2.87
2018-02-02T07:31:30.987Z,2.82
2018-02-02T07:32:30.959Z,2.87
2018-02-02T07:33:30.933Z,2.86
2018-02-02T07:34:30.905Z,2.90
2018-02-02T07:35:30.878Z,2.87
2018-02-02T07:36:30.852Z,2.92
2018-02-02T07:37:30.824Z,2.95
2018-02-02T07:38:30.815Z,2.92
2018-02-02T07:39:30.769Z,2.89
2018-02-02T07:40:30.743Z,2.90
2018-02-02T07:41:30.720Z,2.92
2018-02-02T07:42:30.725Z,2.89
2018-02-02T07:43:30.910Z,2.90
2018-02-02T07:44:30.634Z,2.92
2018-02-02T07:45:30.607Z,2.89
2018-02-02T07:46:30.578Z,2.89
2018-02-02T07:47:30.551Z,2.89
2018-02-02T07:48:30.524Z,2.93
2018-02-02T07:49:30.498Z,2.87
2018-02-02T07:50:30.471Z,2.90
2018-02-02T07:51:30.442Z,2.93
2018-02-02T07:52:30.415Z,2.97
2018-02-02T07:53:30.390Z,2.93
2018-02-02T07:54:30.512Z,2.92
2018-02-02T07:55:30.335Z,2.89
2018-02-02T07:56:30.307Z,2.92
2018-02-02T07:57:30.280Z,2.87
2018-02-02T07:58:30.253Z,2.93
2018-02-02T07:59:30.326Z,2.93
2018-02-02T08:00:30.200Z,2.92
2018-02-02T08:01:30.174Z,2.92
2018-02-02T08:02:30.145Z,2.97
2018-02-02T08:03:30.118Z,2.90
2018-02-02T08:04:30.092Z,2.90
2018-02-02T08:05:30.064Z,2.97
2018-02-02T08:06:30.040Z,2.93
2018-02-02T08:07:30.010Z,2.95
2018-02-02T08:08:29.983Z,2.92
2018-02-02T08:09:30.211Z,2.95
2018-02-02T08:10:29.930Z,2.90
2018-02-02T08:11:29.902Z,2.90
2018-02-02T08:12:29.876Z,2.89
2018-02-02T08:13:29.850Z,2.92
2018-02-02T08:14:29.821Z,2.97
2018-02-02T08:15:29.794Z,2.95
2018-02-02T08:16:29.768Z,2.92
2018-02-02T08:17:29.741Z,2.89
2018-02-02T08:18:29.714Z,2.92
2018-02-02T08:19:29.687Z,2.92
2018-02-02T08:20:29.660Z,2.93
2018-02-02T08:21:29.633Z,2.90
2018-02-02T08:22:29.607Z,2.97
2018-02-02T08:23:29.579Z,2.87
2018-02-02T08:24:29.552Z,2.93
2018-02-02T08:25:29.527Z,2.95
2018-02-02T08:26:29.499Z,2.92
2018-02-02T08:27:29.471Z,2.92
2018-02-02T08:28:29.449Z,2.89
2018-02-02T08:29:29.418Z,2.95
2018-02-02T08:30:29.390Z,2.93
2018-02-02T08:31:29.365Z,2.93
2018-02-02T08:32:29.338Z,2.92
2018-02-02T08:33:29.344Z,2.93
2018-02-02T08:34:29.434Z,2.95
2018-02-02T08:35:29.257Z,2.92
2018-02-02T08:36:29.230Z,2.97
2018-02-02T08:37:29.205Z,2.93
2018-02-02T08:38:29.176Z,3.00
2018-02-02T08:39:29.149Z,3.01
2018-02-02T08:40:29.123Z,2.92
2018-02-02T08:41:29.098Z,3.03
2018-02-02T08:42:29.070Z,3.01
2018-02-02T08:43:29.043Z,3.03
2018-02-02T08:44:29.017Z,2.87
2018-02-02T08:45:28.991Z,2.90
2018-02-02T08:46:28.964Z,2.89
2018-02-02T08:47:28.937Z,3.01
2018-02-02T08:48:28.911Z,2.89
2018-02-02T08:49:28.884Z,3.01
2018-02-02T08:50:28.858Z,3.05
2018-02-02T08:51:28.830Z,3.05
2018-02-02T08:52:28.805Z,3.03
2018-02-02T08:53:28.778Z,3.01
2018-02-02T08:54:28.751Z,3.00
2018-02-02T08:55:28.725Z,3.01
2018-02-02T08:56:28.701Z,3.00
2018-02-02T08:57:28.673Z,3.00
2018-02-02T08:58:28.645Z,3.00
2018-02-02T08:59:28.620Z,3.00
2018-02-02T09:00:28.593Z,3.07
2018-02-02T09:01:28.568Z,3.05
2018-02-02T09:02:28.539Z,3.00
2018-02-02T09:03:28.514Z,3.00
2018-02-02T09:04:28.487Z,3.05
2018-02-02T09:05:28.462Z,3.07
2018-02-02T09:06:28.435Z,3.11
2018-02-02T09:07:28.411Z,3.07
2018-02-02T09:08:28.383Z,2.98
2018-02-02T09:09:28.455Z,3.16
2018-02-02T09:10:28.329Z,3.03
2018-02-02T09:11:28.303Z,3.05
2018-02-02T09:12:28.276Z,3.10
2018-02-02T09:13:28.251Z,3.08
2018-02-02T09:14:28.224Z,3.13
2018-02-02T09:15:28.199Z,3.04
2018-02-02T09:16:28.173Z,3.08
2018-02-02T09:17:28.147Z,3.21
2018-02-02T09:18:28.370Z,3.03
2018-02-02T09:19:28.094Z,3.03
2018-02-02T09:20:28.067Z,3.01
2018-02-02T09:21:28.042Z,3.01
2018-02-02T09:22:28.064Z,3.00
2018-02-02T09:23:27.989Z,3.04
2018-02-02T09:24:27.963Z,3.07
2018-02-02T09:25:27.936Z,3.01
2018-02-02T09:26:27.910Z,3.03
2018-02-02T09:27:27.883Z,3.18
2018-02-02T09:28:27.858Z,3.05
2018-02-02T09:29:27.831Z,3.03
2018-02-02T09:30:27.804Z,2.95
2018-02-02T09:31:27.925Z,3.03
2018-02-02T09:32:27.752Z,3.05
2018-02-02T09:33:27.725Z,3.05
2018-02-02T09:34:27.699Z,2.98
2018-02-02T09:35:27.673Z,3.04
2018-02-02T09:36:27.647Z,3.05
2018-02-02T09:37:27.619Z,2.89
2018-02-02T09:38:27.592Z,2.93
2018-02-02T09:39:27.567Z,2.89
2018-02-02T09:40:27.543Z,2.89
2018-02-02T09:41:27.514Z,2.89
2018-02-02T09:42:27.486Z,2.89
2018-02-02T09:43:27.461Z,2.95
2018-02-02T09:44:27.537Z,2.95
2018-02-02T09:45:27.407Z,2.86
2018-02-02T09:46:27.381Z,2.93
2018-02-02T09:47:27.354Z,2.92
2018-02-02T09:48:27.327Z,2.90
2018-02-02T09:49:27.302Z,2.97
2018-02-02T09:50:27.274Z,2.97
2018-02-02T09:51:27.249Z,2.89
2018-02-02T09:52:27.225Z,2.89
2018-02-02T09:53:27.195Z,2.89
2018-02-02T09:54:27.168Z,3.03
2018-02-02T09:55:27.244Z,3.04
2018-02-02T09:56:27.114Z,3.00
2018-02-02T09:57:27.089Z,3.04
2018-02-02T09:58:27.061Z,2.89
2018-02-02T09:59:27.035Z,2.90
2018-02-02T10:00:27.260Z,2.90
2018-02-02T10:01:26.983Z,2.98
2018-02-02T10:02:26.955Z,2.95
2018-02-02T10:03:26.929Z,3.04
2018-02-02T10:04:26.904Z,2.90
2018-02-02T10:05:26.877Z,2.97
2018-02-02T10:06:26.850Z,3.01
2018-02-02T10:07:26.824Z,2.87
2018-02-02T10:08:26.797Z,2.92
2018-02-02T10:09:26.770Z,2.87
2018-02-02T10:10:26.744Z,2.90
2018-02-02T10:11:26.718Z,2.89
2018-02-02T10:12:26.692Z,3.00
2018-02-02T10:13:26.665Z,2.92
2018-02-02T10:14:26.638Z,3.00
2018-02-02T10:15:26.611Z,2.93
2018-02-02T10:16:26.585Z,2.92
2018-02-02T10:17:26.560Z,2.97
2018-02-02T10:18:26.782Z,2.89
2018-02-02T10:19:26.506Z,2.90
2018-02-02T10:20:26.480Z,2.92
2018-02-02T10:21:26.453Z,2.87
2018-02-02T10:22:26.426Z,2.85
2018-02-02T10:23:26.399Z,2.86
2018-02-02T10:24:26.374Z,2.87
2018-02-02T10:25:26.346Z,2.89
2018-02-02T10:26:26.319Z,2.90
2018-02-02T10:27:26.294Z,2.92
2018-02-02T10:28:26.266Z,2.89
2018-02-02T10:29:26.241Z,2.92
2018-02-02T10:30:26.214Z,2.92
2018-02-02T10:31:26.187Z,2.89
2018-02-02T10:32:26.160Z,2.92
2018-02-02T10:33:26.133Z,2.97
2018-02-02T10:34:26.107Z,3.00
2018-02-02T10:35:26.081Z,3.03
2018-02-02T10:36:26.055Z,2.95
2018-02-02T10:37:26.029Z,3.00
2018-02-02T10:38:26.102Z,3.01
2018-02-02T10:39:25.975Z,3.00
2018-02-02T10:40:25.949Z,2.93
2018-02-02T10:41:25.922Z,3.07
2018-02-02T10:42:25.896Z,3.00
2018-02-02T10:43:25.870Z,3.03
2018-02-02T10:44:25.844Z,3.04
2018-02-02T10:45:25.817Z,3.00
2018-02-02T10:46:25.791Z,2.97
2018-02-02T10:47:25.765Z,3.01
2018-02-02T10:48:25.738Z,2.98
2018-02-02T10:49:25.712Z,3.03
2018-02-02T10:50:25.686Z,2.98
2018-02-02T10:51:25.659Z,3.00
2018-02-02T10:52:25.634Z,3.05
2018-02-02T10:53:25.608Z,3.03
2018-02-02T10:54:25.580Z,3.00
2018-02-02T10:55:25.554Z,3.10
2018-02-02T10:56:25.527Z,3.13
2018-02-02T10:57:25.503Z,3.16
2018-02-02T10:58:25.476Z,3.18
2018-02-02T10:59:25.450Z,3.18
2018-02-02T11:00:25.425Z,3.13
2018-02-02T11:01:25.399Z,3.07
2018-02-02T11:02:25.372Z,3.10
2018-02-02T11:03:25.345Z,3.10
2018-02-02T11:04:25.320Z,3.18
2018-02-02T11:05:25.295Z,3.13
2018-02-02T11:06:25.267Z,3.18
2018-02-02T11:07:25.242Z,3.25
2018-02-02T11:08:25.217Z,3.28
2018-02-02T11:09:25.195Z,3.29
2018-02-02T11:10:25.165Z,3.32
2018-02-02T11:11:25.144Z,3.31
2018-02-02T11:12:25.113Z,3.29
2018-02-02T11:13:25.088Z,3.32
2018-02-02T11:14:25.065Z,3.36
2018-02-02T11:15:25.036Z,3.25
2018-02-02T11:16:25.011Z,3.32
2018-02-02T11:17:24.986Z,3.37
2018-02-02T11:18:24.959Z,3.40
2018-02-02T11:19:24.933Z,3.41
2018-02-02T11:20:24.908Z,3.34
2018-02-02T11:21:24.883Z,3.37
2018-02-02T11:22:24.858Z,3.41
2018-02-02T11:23:24.831Z,3.40
2018-02-02T11:24:24.811Z,3.47
2018-02-02T11:25:24.781Z,3.37
2018-02-02T11:26:24.756Z,3.41
2018-02-02T11:27:24.734Z,3.40
2018-02-02T11:28:24.806Z,3.44
2018-02-02T11:29:24.680Z,3.50
2018-02-02T11:30:24.660Z,3.42
2018-02-02T11:31:24.630Z,3.47
2018-02-02T11:32:24.604Z,3.47
2018-02-02T11:33:24.580Z,3.51
2018-02-02T11:34:24.553Z,3.55
2018-02-02T11:35:24.527Z,3.56
2018-02-02T11:36:24.503Z,3.48
2018-02-02T11:37:24.479Z,3.45
2018-02-02T11:38:24.452Z,3.51
2018-02-02T11:39:24.428Z,3.53
2018-02-02T11:40:24.403Z,3.55
2018-02-02T11:41:24.378Z,3.60
2018-02-02T11:42:24.352Z,3.55
2018-02-02T11:43:24.327Z,3.51
2018-02-02T11:44:24.553Z,3.58
2018-02-02T11:45:24.278Z,3.62
2018-02-02T11:46:24.251Z,3.58
2018-02-02T11:47:24.227Z,3.65
2018-02-02T11:48:24.203Z,3.70
2018-02-02T11:49:24.178Z,3.65
2018-02-02T11:50:24.151Z,3.65
2018-02-02T11:51:24.127Z,3.50
2018-02-02T11:52:24.103Z,3.53
2018-02-02T11:53:24.080Z,3.65
2018-02-02T11:54:24.053Z,3.60
2018-02-02T11:55:24.029Z,3.60
2018-02-02T11:56:24.002Z,3.74
2018-02-02T11:57:23.980Z,3.63
2018-02-02T11:58:23.956Z,3.74
2018-02-02T11:59:23.927Z,3.76
2018-02-02T12:00:23.909Z,3.76
2018-02-02T12:01:23.878Z,3.81
2018-02-02T12:02:24.004Z,3.83
2018-02-02T12:03:23.830Z,3.88
2018-02-02T12:04:23.805Z,3.83
2018-02-02T12:05:23.781Z,3.78
2018-02-02T12:06:23.754Z,3.73
2018-02-02T12:07:23.731Z,3.70
2018-02-02T12:08:23.706Z,3.70
2018-02-02T12:09:23.833Z,3.73
2018-02-02T12:10:23.656Z,3.73
2018-02-02T12:11:23.632Z,3.74
2018-02-02T12:12:23.607Z,3.70
2018-02-02T12:13:23.584Z,3.76
2018-02-02T12:14:23.557Z,3.77
2018-02-02T12:15:23.534Z,3.78
2018-02-02T12:16:23.510Z,3.86
2018-02-02T12:17:23.485Z,3.76
2018-02-02T12:18:23.458Z,3.81
2018-02-02T12:19:23.434Z,3.80
2018-02-02T12:20:23.411Z,3.88
2018-02-02T12:21:23.385Z,3.87
2018-02-02T12:22:23.510Z,3.83
2018-02-02T12:23:23.337Z,3.94
2018-02-02T12:24:23.311Z,3.95
2018-02-02T12:25:23.288Z,3.88
2018-02-02T12:26:23.263Z,3.80
2018-02-02T12:27:23.237Z,3.83
2018-02-02T12:28:23.213Z,3.98
2018-02-02T12:29:23.190Z,3.99
2018-02-02T12:30:23.164Z,3.95
2018-02-02T12:31:23.139Z,3.94
2018-02-02T12:32:23.115Z,3.92
2018-02-02T12:33:23.092Z,3.96
2018-02-02T12:34:23.066Z,3.94
2018-02-02T12:35:23.041Z,3.94
2018-02-02T12:36:23.016Z,3.94
2018-02-02T12:37:22.992Z,3.95
2018-02-02T12:38:22.967Z,3.95
2018-02-02T12:39:22.943Z,3.98
2018-02-02T12:40:22.919Z,3.95
2018-02-02T12:41:22.893Z,3.94
2018-02-02T12:42:22.870Z,3.94
2018-02-02T12:43:22.994Z,3.88
2018-02-02T12:44:22.818Z,3.83
2018-02-02T12:45:22.796Z,3.92
2018-02-02T12:46:22.769Z,3.84
2018-02-02T12:47:22.745Z,3.83
2018-02-02T12:48:22.720Z,3.84
2018-02-02T12:49:22.696Z,3.86
2018-02-02T12:50:24.447Z,3.95
2018-02-02T12:51:22.644Z,3.88
2018-02-02T12:52:22.625Z,3.95
2018-02-02T12:53:22.595Z,3.88
2018-02-02T12:54:22.570Z,3.83
2018-02-02T12:55:22.544Z,3.87
2018-02-02T12:56:22.520Z,3.88
2018-02-02T12:57:22.496Z,3.80
2018-02-02T12:58:22.470Z,3.84
2018-02-02T12:59:22.445Z,3.83
2018-02-02T13:00:22.419Z,3.81
2018-02-02T13:01:22.395Z,3.91
2018-02-02T13:02:22.369Z,3.92
2018-02-02T13:03:22.343Z,3.91
2018-02-02T13:04:22.320Z,3.87
2018-02-02T13:05:22.297Z,3.86
2018-02-02T13:06:22.268Z,3.83
2018-02-02T13:07:22.246Z,3.94
2018-02-02T13:08:22.219Z,4.01
2018-02-02T13:09:22.194Z,4.02
2018-02-02T13:10:22.168Z,3.96
2018-02-02T13:11:22.143Z,4.10
2018-02-02T13:12:22.120Z,4.16
2018-02-02T13:13:22.194Z,4.12
2018-02-02T13:14:22.070Z,4.12
2018-02-02T13:15:22.044Z,4.08
2018-02-02T13:16:22.021Z,4.01
2018-02-02T13:17:21.997Z,4.12
2018-02-02T13:18:22.221Z,4.16
2018-02-02T13:19:21.945Z,4.14
2018-02-02T13:20:21.922Z,4.04
2018-02-02T13:21:21.896Z,4.19
2018-02-02T13:22:21.870Z,4.19
2018-02-02T13:23:22.246Z,4.14
2018-02-02T13:24:21.823Z,4.10
2018-02-02T13:25:21.798Z,4.17
2018-02-02T13:26:21.772Z,4.17
2018-02-02T13:27:21.748Z,4.08
2018-02-02T13:28:21.724Z,4.10
2018-02-02T13:29:21.699Z,4.08
2018-02-02T13:30:21.674Z,4.19
2018-02-02T13:31:21.650Z,4.16
2018-02-02T13:32:21.625Z,4.13
2018-02-02T13:33:21.600Z,4.13
2018-02-02T13:34:21.576Z,4.22
2018-02-02T13:35:21.551Z,4.13
2018-02-02T13:36:21.527Z,4.20
2018-02-02T13:37:21.505Z,4.19
2018-02-02T13:38:21.477Z,4.20
2018-02-02T13:39:21.452Z,4.17
2018-02-02T13:40:21.428Z,4.12
2018-02-02T13:41:21.403Z,4.10
2018-02-02T13:42:21.529Z,4.16
2018-02-02T13:43:21.353Z,4.16
2018-02-02T13:44:21.329Z,4.16
2018-02-02T13:45:21.306Z,4.06
2018-02-02T13:46:21.279Z,4.14
2018-02-02T13:47:21.255Z,4.14
2018-02-02T13:48:21.382Z,4.06
2018-02-02T13:49:21.206Z,4.01
2018-02-02T13:50:21.180Z,4.12
2018-02-02T13:51:21.155Z,3.99
2018-02-02T13:52:21.132Z,4.04
2018-02-02T13:53:21.107Z,4.12
2018-02-02T13:54:21.080Z,4.14
2018-02-02T13:55:21.055Z,4.04
2018-02-02T13:56:21.032Z,4.05
2018-02-02T13:57:21.006Z,4.04
2018-02-02T13:58:20.981Z,4.12
2018-02-02T13:59:20.957Z,4.02
2018-02-02T14:00:20.932Z,4.02
2018-02-02T14:01:20.907Z,4.04
2018-02-02T14:02:20.880Z,4.06
2018-02-02T14:03:20.856Z,4.02
2018-02-02T14:04:20.831Z,4.05
2018-02-02T14:05:20.806Z,4.05
2018-02-02T14:06:20.780Z,4.08
2018-02-02T14:07:20.757Z,4.12
2018-02-02T14:08:20.738Z,4.02
2018-02-02T14:09:20.707Z,4.06
2018-02-02T14:10:20.680Z,3.98
2018-02-02T14:11:20.655Z,4.14
2018-02-02T14:12:20.632Z,4.02
2018-02-02T14:13:20.607Z,4.05
2018-02-02T14:14:20.831Z,4.13
2018-02-02T14:15:20.556Z,4.08
2018-02-02T14:16:20.530Z,3.99
2018-02-02T14:17:20.507Z,4.08
2018-02-02T14:18:20.532Z,3.99
2018-02-02T14:19:20.455Z,4.17
2018-02-02T14:20:20.432Z,4.10
2018-02-02T14:21:20.408Z,4.06
2018-02-02T14:22:20.379Z,4.06
2018-02-02T14:23:20.356Z,4.16
2018-02-02T14:24:20.581Z,4.12
2018-02-02T14:25:20.305Z,3.99
2018-02-02T14:26:20.279Z,4.10
2018-02-02T14:27:20.254Z,3.99
2018-02-02T14:28:20.229Z,3.98
2018-02-02T14:29:20.455Z,4.01
2018-02-02T14:30:20.180Z,4.01
2018-02-02T14:31:20.155Z,3.99
2018-02-02T14:32:20.133Z,3.98
2018-02-02T14:33:20.104Z,3.99
2018-02-02T14:34:20.079Z,3.96
2018-02-02T14:35:20.054Z,3.92
2018-02-02T14:36:20.028Z,3.99
2018-02-02T14:37:20.004Z,4.02
2018-02-02T14:38:19.978Z,3.98
2018-02-02T14:39:19.952Z,3.98
2018-02-02T14:40:19.927Z,4.01
2018-02-02T14:41:19.906Z,4.06
2018-02-02T14:42:19.877Z,4.10
2018-02-02T14:43:19.851Z,4.04
2018-02-02T14:44:19.827Z,4.10
2018-02-02T14:45:20.053Z,4.12
2018-02-02T14:46:19.776Z,4.08
2018-02-02T14:47:19.751Z,4.14
2018-02-02T14:48:19.726Z,4.20
2018-02-02T14:49:19.701Z,4.16
2018-02-02T14:50:19.857Z,3.99
2018-02-02T14:51:19.651Z,4.01
2018-02-02T14:52:19.626Z,4.05
2018-02-02T14:53:19.602Z,4.01
2018-02-02T14:54:19.574Z,3.98
2018-02-02T14:55:19.550Z,3.99
2018-02-02T14:56:19.525Z,3.92
2018-02-02T14:57:19.500Z,4.01
2018-02-02T14:58:19.477Z,3.98
2018-02-02T14:59:19.448Z,3.96
2018-02-02T15:00:19.425Z,3.92
2018-02-02T15:01:19.399Z,3.95
2018-02-02T15:02:19.372Z,3.98
2018-02-02T15:03:19.349Z,4.01
2018-02-02T15:04:19.324Z,3.95
2018-02-02T15:05:19.298Z,3.95
2018-02-02T15:06:19.272Z,3.88
2018-02-02T15:07:19.247Z,3.94
2018-02-02T15:08:19.221Z,3.98
2018-02-02T15:09:19.196Z,3.94
2018-02-02T15:10:19.171Z,3.83
2018-02-02T15:11:19.146Z,3.86
2018-02-02T15:12:19.120Z,3.91
2018-02-02T15:13:19.095Z,3.95
2018-02-02T15:14:19.069Z,3.87
2018-02-02T15:15:19.042Z,3.96
2018-02-02T15:16:19.018Z,4.01
2018-02-02T15:17:19.244Z,3.92
2018-02-02T15:18:18.968Z,3.99
2018-02-02T15:19:18.942Z,3.95
2018-02-02T15:20:18.916Z,4.01
2018-02-02T15:21:18.891Z,3.95
2018-02-02T15:22:19.114Z,3.96
2018-02-02T15:23:18.839Z,3.87
2018-02-02T15:24:18.814Z,3.95
2018-02-02T15:25:18.789Z,3.92
2018-02-02T15:26:18.762Z,3.98
2018-02-02T15:27:18.738Z,3.94
2018-02-02T15:28:18.713Z,3.84
2018-02-02T15:29:18.686Z,3.83
2018-02-02T15:30:18.660Z,3.91
2018-02-02T15:31:18.634Z,3.91
2018-02-02T15:32:18.611Z,3.86
2018-02-02T15:33:18.684Z,3.83
2018-02-02T15:34:18.558Z,3.83
2018-02-02T15:35:18.532Z,3.86
2018-02-02T15:36:18.507Z,3.77
2018-02-02T15:37:18.482Z,3.88
2018-02-02T15:38:18.456Z,3.81
2018-02-02T15:39:18.430Z,3.81
2018-02-02T15:40:18.405Z,3.87
2018-02-02T15:41:18.380Z,3.91
2018-02-02T15:42:18.354Z,3.91
2018-02-02T15:43:18.578Z,3.88
2018-02-02T15:44:18.303Z,3.84
2018-02-02T15:45:18.277Z,3.87
2018-02-02T15:46:18.251Z,3.96
2018-02-02T15:47:18.225Z,3.87
2018-02-02T15:48:18.203Z,3.95
2018-02-02T15:49:18.174Z,3.80
2018-02-02T15:50:18.148Z,3.92
2018-02-02T15:51:18.124Z,3.91
2018-02-02T15:52:18.097Z,3.83
2018-02-02T15:53:18.322Z,3.96
2018-02-02T15:54:18.047Z,3.83
2018-02-02T15:55:18.020Z,3.86
2018-02-02T15:56:17.995Z,3.84
2018-02-02T15:57:17.969Z,3.86
2018-02-02T15:58:17.944Z,3.86
2018-02-02T15:59:17.919Z,3.87
2018-02-02T16:00:17.893Z,3.86
2018-02-02T16:01:17.867Z,3.83
2018-02-02T16:02:17.841Z,3.87
2018-02-02T16:03:17.817Z,3.87
2018-02-02T16:04:17.791Z,3.87
2018-02-02T16:05:17.765Z,3.83
2018-02-02T16:06:17.740Z,3.87
2018-02-02T16:07:17.714Z,3.86
2018-02-02T16:08:17.688Z,3.86
2018-02-02T16:09:17.663Z,3.81
2018-02-02T16:10:17.638Z,3.80
2018-02-02T16:11:17.611Z,3.84
2018-02-02T16:12:17.587Z,3.83
2018-02-02T16:13:17.562Z,3.83
2018-02-02T16:14:17.534Z,3.83
2018-02-02T16:15:17.509Z,3.84
2018-02-02T16:16:17.485Z,3.81
2018-02-02T16:17:17.459Z,3.80
2018-02-02T16:18:17.433Z,3.81
2018-02-02T16:19:17.407Z,3.87
2018-02-02T16:20:17.382Z,3.69
2018-02-02T16:21:17.357Z,3.78
2018-02-02T16:22:17.330Z,3.74
2018-02-02T16:23:17.304Z,3.76
2018-02-02T16:24:17.285Z,3.73
2018-02-02T16:25:17.255Z,3.80
2018-02-02T16:26:17.227Z,3.78
2018-02-02T16:27:17.201Z,3.76
2018-02-02T16:28:17.176Z,3.66
2018-02-02T16:29:17.152Z,3.73
2018-02-02T16:30:17.128Z,3.63
2018-02-02T16:31:17.098Z,3.70
2018-02-02T16:32:17.074Z,3.66
2018-02-02T16:33:17.049Z,3.78
2018-02-02T16:34:17.021Z,3.77
2018-02-02T16:35:16.995Z,3.77
2018-02-02T16:36:16.970Z,3.69
2018-02-02T16:37:17.045Z,3.73
2018-02-02T16:38:16.919Z,3.62
2018-02-02T16:39:16.892Z,3.73
2018-02-02T16:40:16.867Z,3.68
2018-02-02T16:41:16.842Z,3.59
2018-02-02T16:42:16.816Z,3.65
2018-02-02T16:43:16.790Z,3.48
2018-02-02T16:44:16.769Z,3.50
2018-02-02T16:45:16.739Z,3.45
2018-02-02T16:46:16.715Z,3.50
2018-02-02T16:47:16.687Z,3.55
2018-02-02T16:48:16.660Z,3.51
2018-02-02T16:49:16.636Z,3.56
2018-02-02T16:50:16.610Z,3.56
2018-02-02T16:51:16.583Z,3.55
2018-02-02T16:52:16.557Z,3.51
2018-02-02T16:53:16.782Z,3.58
2018-02-02T16:54:16.504Z,3.51
2018-02-02T16:55:16.480Z,3.50
2018-02-02T16:56:16.454Z,3.50
2018-02-02T16:57:16.428Z,3.53
2018-02-02T16:58:16.402Z,3.51
2018-02-02T16:59:16.376Z,3.50
2018-02-02T17:00:16.396Z,3.55
2018-02-02T17:01:16.326Z,3.53
2018-02-02T17:02:16.299Z,3.50
2018-02-02T17:03:16.524Z,3.53
2018-02-02T17:04:16.248Z,3.47
2018-02-02T17:05:16.222Z,3.45
2018-02-02T17:06:16.196Z,3.45
2018-02-02T17:07:16.169Z,3.44
2018-02-02T17:08:16.143Z,3.53
2018-02-02T17:09:16.118Z,3.50
2018-02-02T17:10:16.092Z,3.55
2018-02-02T17:11:16.073Z,3.44
2018-02-02T17:12:16.040Z,3.44
2018-02-02T17:13:16.015Z,3.42
2018-02-02T17:14:15.989Z,3.37
2018-02-02T17:15:15.962Z,3.40
2018-02-02T17:16:15.937Z,3.41
2018-02-02T17:17:15.911Z,3.40
2018-02-02T17:18:15.884Z,3.37
2018-02-02T17:19:16.009Z,3.36
2018-02-02T17:20:15.834Z,3.36
2018-02-02T17:21:15.807Z,3.40
2018-02-02T17:22:15.780Z,3.34
2018-02-02T17:23:15.755Z,3.32
2018-02-02T17:24:15.729Z,3.26
2018-02-02T17:25:15.703Z,3.26
2018-02-02T17:26:15.676Z,3.28
2018-02-02T17:27:15.650Z,3.29
2018-02-02T17:28:15.625Z,3.34
2018-02-02T17:29:15.597Z,3.34
2018-02-02T17:30:15.572Z,3.32
2018-02-02T17:31:15.546Z,3.26
2018-02-02T17:32:15.521Z,3.29
2018-02-02T17:33:15.545Z,3.28
2018-02-02T17:34:15.466Z,3.32
2018-02-02T17:35:15.441Z,3.26
2018-02-02T17:36:15.714Z,3.26
2018-02-02T17:37:15.389Z,3.32
2018-02-02T17:38:15.363Z,3.25
2018-02-02T17:39:15.336Z,3.23
2018-02-02T17:40:15.311Z,3.22
2018-02-02T17:41:15.285Z,3.18
2018-02-02T17:42:15.258Z,3.29
2018-02-02T17:43:15.232Z,3.31
2018-02-02T17:44:15.211Z,3.26
2018-02-02T17:45:15.179Z,3.21
2018-02-02T17:46:15.153Z,3.31
2018-02-02T17:47:15.133Z,3.26
2018-02-02T17:48:15.100Z,3.31
2018-02-02T17:49:15.076Z,3.32
2018-02-02T17:50:15.049Z,3.29
2018-02-02T17:51:15.023Z,3.25
2018-02-02T17:52:14.996Z,3.40
2018-02-02T17:53:14.971Z,3.36
2018-02-02T17:54:14.944Z,3.22
2018-02-02T17:55:14.918Z,3.36
2018-02-02T17:56:14.993Z,3.37
2018-02-02T17:57:14.867Z,3.29
2018-02-02T17:58:14.840Z,3.31
2018-02-02T17:59:14.815Z,3.22
2018-02-02T18:00:14.789Z,3.22
2018-02-02T18:01:14.762Z,3.31
2018-02-02T18:02:14.736Z,3.26
2018-02-02T18:03:14.711Z,3.26
2018-02-02T18:04:14.685Z,3.29
2018-02-02T18:05:14.660Z,3.32
2018-02-02T18:06:14.631Z,3.21
2018-02-02T18:07:14.606Z,3.28
2018-02-02T18:08:14.581Z,3.28
2018-02-02T18:09:14.556Z,3.34
2018-02-02T18:10:14.529Z,3.31
2018-02-02T18:11:14.503Z,3.26
2018-02-02T18:12:14.478Z,3.32
2018-02-02T18:13:14.450Z,3.34
2018-02-02T18:14:14.426Z,3.21
2018-02-02T18:15:14.400Z,3.22
2018-02-02T18:16:14.474Z,3.28
2018-02-02T18:17:14.348Z,3.36
2018-02-02T18:18:14.320Z,3.22
2018-02-02T18:19:14.296Z,3.26
2018-02-02T18:20:14.269Z,3.26
2018-02-02T18:21:14.244Z,3.32
2018-02-02T18:22:14.216Z,3.32
2018-02-02T18:23:14.192Z,3.19
2018-02-02T18:24:14.167Z,3.22
2018-02-02T18:25:14.142Z,3.21
2018-02-02T18:26:14.114Z,3.31
2018-02-02T18:27:14.089Z,3.29
2018-02-02T18:28:14.062Z,3.22
2018-02-02T18:29:14.037Z,3.26
2018-02-02T18:30:14.013Z,3.36
2018-02-02T18:31:13.985Z,3.29
2018-02-02T18:32:13.961Z,3.25
2018-02-02T18:33:13.935Z,3.34
2018-02-02T18:34:13.965Z,3.31
2018-02-02T18:35:13.888Z,3.29
2018-02-02T18:36:13.857Z,3.29
2018-02-02T18:37:13.832Z,3.32
2018-02-02T18:38:13.805Z,3.29
2018-02-02T18:39:13.780Z,3.31
2018-02-02T18:40:13.755Z,3.28
2018-02-02T18:41:13.729Z,3.26
2018-02-02T18:42:13.702Z,3.29
2018-02-02T18:43:13.676Z,3.25
2018-02-02T18:44:13.650Z,3.34
2018-02-02T18:45:13.626Z,3.23
2018-02-02T18:46:13.599Z,3.21
2018-02-02T18:47:13.575Z,3.31
2018-02-02T18:48:13.548Z,3.34
2018-02-02T18:49:13.576Z,3.19
2018-02-02T18:50:13.495Z,3.29
2018-02-02T18:51:13.519Z,3.21
2018-02-02T18:52:13.444Z,3.25
2018-02-02T18:53:13.418Z,3.21
2018-02-02T18:54:13.392Z,3.25
2018-02-02T18:55:13.365Z,3.22
2018-02-02T18:56:13.339Z,3.19
2018-02-02T18:57:13.315Z,3.18
2018-02-02T18:58:13.288Z,3.25
2018-02-02T18:59:13.263Z,3.14
2018-02-02T19:00:13.240Z,3.19
2018-02-02T19:01:13.213Z,3.16
2018-02-02T19:02:13.285Z,3.21
2018-02-02T19:03:13.159Z,3.19
2018-02-02T19:04:13.132Z,3.21
2018-02-02T19:05:13.108Z,3.23
2018-02-02T19:06:13.080Z,3.28
2018-02-02T19:07:13.055Z,3.25
2018-02-02T19:08:13.030Z,3.28
2018-02-02T19:09:13.007Z,3.21
2018-02-02T19:10:12.976Z,3.22
2018-02-02T19:11:12.950Z,3.21
2018-02-02T19:12:12.925Z,3.19
2018-02-02T19:13:12.900Z,3.28
2018-02-02T19:14:12.873Z,3.16
2018-02-02T19:15:12.846Z,3.18
2018-02-02T19:16:12.821Z,3.21
2018-02-02T19:17:12.796Z,3.26
2018-02-02T19:18:12.769Z,3.18
2018-02-02T19:19:12.743Z,3.29
2018-02-02T19:20:12.717Z,3.23
2018-02-02T19:21:12.742Z,3.23
2018-02-02T19:22:12.665Z,3.21
2018-02-02T19:23:12.639Z,3.18
2018-02-02T19:24:12.614Z,3.19
2018-02-02T19:25:12.590Z,3.19
2018-02-02T19:26:12.711Z,3.18
2018-02-02T19:27:12.534Z,3.19
2018-02-02T19:28:12.546Z,3.16
2018-02-02T19:29:12.482Z,3.14
2018-02-02T19:30:12.456Z,3.22
2018-02-02T19:31:12.431Z,3.18
2018-02-02T19:32:12.406Z,3.22
2018-02-02T19:33:12.378Z,3.18
2018-02-02T19:34:12.353Z,3.13
2018-02-02T19:35:12.327Z,3.16
2018-02-02T19:36:12.450Z,3.11
2018-02-02T19:37:12.276Z,3.16
2018-02-02T19:38:12.249Z,3.18
2018-02-02T19:39:12.223Z,3.19
2018-02-02T19:40:12.202Z,3.10
2018-02-02T19:41:12.271Z,3.13
2018-02-02T19:42:12.145Z,3.18
2018-02-02T19:43:12.118Z,3.13
2018-02-02T19:44:12.093Z,3.18
2018-02-02T19:45:12.067Z,3.13
2018-02-02T19:46:12.140Z,3.18
2018-02-02T19:47:12.016Z,3.11
2018-02-02T19:48:11.989Z,3.16
2018-02-02T19:49:11.962Z,3.16
2018-02-02T19:50:11.936Z,3.13
2018-02-02T19:51:11.910Z,3.18
2018-02-02T19:52:11.884Z,3.14
2018-02-02T19:53:11.859Z,3.08
2018-02-02T19:54:11.830Z,3.14
2018-02-02T19:55:11.806Z,3.08
2018-02-02T19:56:11.783Z,3.16
2018-02-02T19:57:11.754Z,3.11
2018-02-02T19:58:11.727Z,3.14
2018-02-02T19:59:11.700Z,3.16
2018-02-02T20:00:11.675Z,3.14
2018-02-02T20:01:11.649Z,3.08
2018-02-02T20:02:11.873Z,3.13
2018-02-02T20:03:11.596Z,3.13
2018-02-02T20:04:11.570Z,3.18
2018-02-02T20:05:11.546Z,3.07
2018-02-02T20:06:11.517Z,3.14
2018-02-02T20:07:11.497Z,3.14
2018-02-02T20:08:11.616Z,3.16
2018-02-02T20:09:11.442Z,3.11
2018-02-02T20:10:11.416Z,3.18
2018-02-02T20:11:11.388Z,3.19
2018-02-02T20:12:11.361Z,3.16
2018-02-02T20:13:11.337Z,3.18
2018-02-02T20:14:11.309Z,3.18
2018-02-02T20:15:11.284Z,3.13
2018-02-02T20:16:11.257Z,3.14
2018-02-02T20:17:11.234Z,3.14
2018-02-02T20:18:11.205Z,3.14
2018-02-02T20:19:11.180Z,3.14
2018-02-02T20:20:11.156Z,3.16
2018-02-02T20:21:11.127Z,3.18
2018-02-02T20:22:11.101Z,3.14